Time;durP1;ratioP1;P1;durP2;ratioP2;P2;SDS_P1;SDS_P2;PMS_P1;PMS_P2;Temp;Humidity;BMP_temperature;BMP_pressure;BME280_temperature;BME280_humidity;BME280_pressure;Samples;Min_cycle;Max_cycle;Signal;HPM_P1;HPM_P2
2023/06/16 00:00:10;;;;;;;19.25;6.22;;;;;;;;;;2093510;28;20517;-62
2023/06/16 00:01:35;;;;;;;10.05;6.13;;;;;;;;;;2087614;28;20041;-63
2023/06/16 00:02:57;;;;;;;8.90;5.88;;;;;;;;;;2091231;28;20028;-63
2023/06/16 00:04:17;;;;;;;12.07;6.10;;;;;;;;;;2095690;28;20024;-64
2023/06/16 00:05:36;;;;;;;9.82;6.13;;;;;;;;;;2092956;28;20474;-63
2023/06/16 00:06:56;;;;;;;14.95;6.32;;;;;;;;;;2087141;28;20573;-62
2023/06/16 00:08:15;;;;;;;10.45;6.07;;;;;;;;;;2092307;28;20020;-62
2023/06/16 00:09:34;;;;;;;11.70;7.15;;;;;;;;;;2083299;28;20032;-62
2023/06/16 00:10:52;;;;;;;6.97;6.35;;;;;;;;;;2091990;28;20500;-62
2023/06/16 00:12:11;;;;;;;11.55;6.88;;;;;;;;;;2094005;28;20017;-65
2023/06/16 00:13:30;;;;;;;8.45;6.32;;;;;;;;;;2092155;28;20584;-62
2023/06/16 00:14:49;;;;;;;8.77;7.13;;;;;;;;;;2095725;28;20020;-62
2023/06/16 00:16:12;;;;;;;8.02;6.38;;;;;;;;;;2092394;28;20024;-64
2023/06/16 00:17:31;;;;;;;10.20;6.90;;;;;;;;;;2093944;28;20457;-63
2023/06/16 00:18:52;;;;;;;10.38;6.70;;;;;;;;;;2094671;28;20378;-63
2023/06/16 00:20:12;;;;;;;11.55;6.85;;;;;;;;;;2094372;28;20032;-64
2023/06/16 00:21:37;;;;;;;7.53;6.45;;;;;;;;;;2094616;28;20564;-63
2023/06/16 00:22:57;;;;;;;10.02;6.90;;;;;;;;;;2094770;28;20040;-63
2023/06/16 00:24:16;;;;;;;12.15;7.18;;;;;;;;;;2091775;28;20029;-64
2023/06/16 00:25:35;;;;;;;13.20;6.68;;;;;;;;;;2095410;28;20032;-63
2023/06/16 00:26:55;;;;;;;8.05;6.43;;;;;;;;;;2094329;28;20032;-63
2023/06/16 00:28:14;;;;;;;10.98;6.93;;;;;;;;;;2086831;28;20037;-63
2023/06/16 00:29:38;;;;;;;12.18;7.32;;;;;;;;;;2089208;28;20032;-64
2023/06/16 00:30:57;;;;;;;14.48;6.57;;;;;;;;;;2087434;28;20029;-64
2023/06/16 00:32:16;;;;;;;14.30;7.10;;;;;;;;;;2092372;28;20104;-64
2023/06/16 00:33:35;;;;;;;13.15;7.05;;;;;;;;;;2093825;28;20492;-63
2023/06/16 00:34:54;;;;;;;16.52;7.00;;;;;;;;;;2095836;28;20033;-63
2023/06/16 00:36:13;;;;;;;11.88;7.00;;;;;;;;;;2093189;28;20028;-64
2023/06/16 00:37:32;;;;;;;10.93;6.82;;;;;;;;;;2093301;28;20103;-67
2023/06/16 00:38:51;;;;;;;24.08;8.70;;;;;;;;;;2091230;28;20020;-64
2023/06/16 00:40:10;;;;;;;13.15;7.20;;;;;;;;;;2084189;28;20510;-63
2023/06/16 00:41:29;;;;;;;11.25;7.68;;;;;;;;;;2078991;28;20025;-63
2023/06/16 00:42:49;;;;;;;10.07;7.30;;;;;;;;;;2090962;28;20021;-68
2023/06/16 00:44:08;;;;;;;10.25;7.38;;;;;;;;;;2092114;28;20545;-64
2023/06/16 00:45:30;;;;;;;9.57;7.20;;;;;;;;;;2090936;28;20033;-68
2023/06/16 00:46:49;;;;;;;16.45;6.93;;;;;;;;;;2095457;28;20409;-62
2023/06/16 00:48:09;;;;;;;10.93;6.95;;;;;;;;;;2080396;28;20022;-65
2023/06/16 00:49:28;;;;;;;11.07;7.13;;;;;;;;;;2081362;28;20509;-63
2023/06/16 00:50:47;;;;;;;14.23;7.65;;;;;;;;;;2090201;28;20028;-64
2023/06/16 00:52:07;;;;;;;9.60;7.68;;;;;;;;;;2096013;28;20032;-63
2023/06/16 00:53:26;;;;;;;10.13;7.40;;;;;;;;;;2094030;28;20443;-65
2023/06/16 00:54:45;;;;;;;9.18;7.13;;;;;;;;;;2095136;28;20029;-63
2023/06/16 00:56:04;;;;;;;8.45;7.05;;;;;;;;;;2093842;28;20033;-64
2023/06/16 00:57:23;;;;;;;7.35;6.35;;;;;;;;;;2093411;28;20037;-65
2023/06/16 00:58:45;;;;;;;10.65;7.00;;;;;;;;;;2094453;28;20029;-64
2023/06/16 01:00:06;;;;;;;8.90;7.07;;;;;;;;;;2094014;28;20096;-64
2023/06/16 01:01:26;;;;;;;11.10;7.00;;;;;;;;;;2095650;28;20045;-64
2023/06/16 01:02:45;;;;;;;10.02;6.47;;;;;;;;;;2094428;28;20108;-63
2023/06/16 01:04:04;;;;;;;9.93;7.32;;;;;;;;;;2092432;28;20944;-63
2023/06/16 01:05:24;;;;;;;11.15;6.93;;;;;;;;;;2093564;28;20029;-63
2023/06/16 01:06:48;;;;;;;8.05;7.10;;;;;;;;;;2087528;28;20025;-62
2023/06/16 01:08:14;;;;;;;15.70;8.07;;;;;;;;;;2088678;28;20079;-64
2023/06/16 01:09:42;;;;;;;10.20;7.35;;;;;;;;;;2093446;28;20025;-63
2023/06/16 01:11:10;;;;;;;11.40;6.93;;;;;;;;;;2091789;28;20052;-62
2023/06/16 01:12:48;;;;;;;8.75;7.35;;;;;;;;;;2092699;28;20017;-62
2023/06/16 01:14:14;;;;;;;11.75;7.20;;;;;;;;;;2094621;28;20505;-62
2023/06/16 01:15:33;;;;;;;14.32;7.88;;;;;;;;;;2082154;28;20044;-63
2023/06/16 01:16:53;;;;;;;13.48;7.50;;;;;;;;;;2090657;28;20478;-62
2023/06/16 01:18:14;;;;;;;9.43;7.65;;;;;;;;;;2094607;28;20072;-62
2023/06/16 01:19:39;;;;;;;11.43;7.55;;;;;;;;;;2091345;28;20017;-63
2023/06/16 01:21:08;;;;;;;12.20;7.60;;;;;;;;;;2096155;28;20037;-63
2023/06/16 01:22:33;;;;;;;12.40;7.75;;;;;;;;;;2095716;28;20581;-62
2023/06/16 01:24:03;;;;;;;9.32;6.97;;;;;;;;;;2082827;28;20044;-62
2023/06/16 01:25:24;;;;;;;13.18;7.20;;;;;;;;;;2090024;28;20029;-62
2023/06/16 01:26:47;;;;;;;10.43;7.63;;;;;;;;;;2089804;28;20036;-62
2023/06/16 01:28:07;;;;;;;9.65;7.10;;;;;;;;;;2091586;28;20025;-62
2023/06/16 01:29:27;;;;;;;17.33;7.78;;;;;;;;;;2085181;28;20112;-63
2023/06/16 01:30:50;;;;;;;11.27;7.32;;;;;;;;;;2085869;28;20675;-63
2023/06/16 01:32:10;;;;;;;10.32;7.55;;;;;;;;;;2085651;28;20116;-63
2023/06/16 01:33:30;;;;;;;9.75;7.22;;;;;;;;;;2088621;28;20062;-62
2023/06/16 01:34:51;;;;;;;9.55;6.70;;;;;;;;;;2093925;28;20505;-63
2023/06/16 01:36:10;;;;;;;8.77;7.03;;;;;;;;;;2092149;28;20392;-63
2023/06/16 01:37:29;;;;;;;9.60;7.18;;;;;;;;;;2093415;28;20020;-66
2023/06/16 01:38:49;;;;;;;12.52;7.05;;;;;;;;;;2097351;28;20028;-62
2023/06/16 01:40:08;;;;;;;9.15;7.32;;;;;;;;;;2075157;28;20037;-63
2023/06/16 01:41:27;;;;;;;8.25;6.85;;;;;;;;;;2083656;28;20389;-62
2023/06/16 01:42:47;;;;;;;11.95;7.25;;;;;;;;;;2091137;28;20434;-62
2023/06/16 01:44:07;;;;;;;13.07;6.90;;;;;;;;;;2088927;28;20033;-63
2023/06/16 01:45:26;;;;;;;9.75;7.32;;;;;;;;;;2088434;28;20692;-63
2023/06/16 01:46:47;;;;;;;12.73;7.38;;;;;;;;;;2090257;28;20056;-63
2023/06/16 01:48:06;;;;;;;8.15;7.13;;;;;;;;;;2081838;28;20052;-63
2023/06/16 01:49:25;;;;;;;8.90;7.65;;;;;;;;;;2086952;28;20024;-61
2023/06/16 01:50:44;;;;;;;12.80;7.38;;;;;;;;;;2089388;28;20033;-61
2023/06/16 01:52:03;;;;;;;14.30;8.13;;;;;;;;;;2089443;28;20025;-62
2023/06/16 01:53:23;;;;;;;9.75;7.05;;;;;;;;;;2091651;28;20020;-61
2023/06/16 01:54:42;;;;;;;9.68;7.65;;;;;;;;;;2095764;28;20024;-62
2023/06/16 01:56:01;;;;;;;9.75;7.85;;;;;;;;;;2092953;28;20021;-66
2023/06/16 01:57:21;;;;;;;8.40;7.25;;;;;;;;;;2079121;28;20040;-61
2023/06/16 01:58:40;;;;;;;11.13;7.35;;;;;;;;;;2090872;28;20033;-62
2023/06/16 02:00:08;;;;;;;13.70;8.18;;;;;;;;;;2095733;28;20024;-62
2023/06/16 02:01:28;;;;;;;8.02;7.18;;;;;;;;;;2094289;28;20040;-62
2023/06/16 02:02:53;;;;;;;8.65;7.80;;;;;;;;;;2092700;28;20024;-62
2023/06/16 02:04:14;;;;;;;7.43;6.82;;;;;;;;;;2092041;28;20025;-63
2023/06/16 02:05:35;;;;;;;8.40;7.53;;;;;;;;;;2093930;28;20021;-62
2023/06/16 02:07:02;;;;;;;11.43;7.57;;;;;;;;;;2094806;28;20025;-61
2023/06/16 02:08:23;;;;;;;8.30;7.43;;;;;;;;;;2094564;28;20033;-63
2023/06/16 02:09:43;;;;;;;10.70;7.32;;;;;;;;;;2084296;28;20025;-63
2023/06/16 02:11:03;;;;;;;14.13;8.07;;;;;;;;;;2089935;28;20554;-63
2023/06/16 02:12:22;;;;;;;13.07;7.47;;;;;;;;;;2081953;28;20021;-62
2023/06/16 02:13:42;;;;;;;8.93;7.47;;;;;;;;;;2090404;28;20045;-63
2023/06/16 02:15:01;;;;;;;12.85;6.68;;;;;;;;;;2095617;28;20044;-64
2023/06/16 02:16:20;;;;;;;7.93;6.55;;;;;;;;;;2097723;28;20021;-62
2023/06/16 02:17:44;;;;;;;10.18;7.30;;;;;;;;;;2094444;28;20032;-63
2023/06/16 02:19:03;;;;;;;11.35;7.32;;;;;;;;;;2096435;28;20024;-62
2023/06/16 02:20:22;;;;;;;12.25;7.20;;;;;;;;;;2093070;28;20083;-64
2023/06/16 02:21:41;;;;;;;13.52;7.95;;;;;;;;;;2095168;28;20029;-62
2023/06/16 02:23:00;;;;;;;12.43;7.45;;;;;;;;;;2094379;28;20021;-64
2023/06/16 02:24:19;;;;;;;8.32;7.07;;;;;;;;;;2096617;28;20498;-63
2023/06/16 02:25:38;;;;;;;9.57;7.30;;;;;;;;;;2093960;28;20489;-63
2023/06/16 02:26:57;;;;;;;10.65;7.65;;;;;;;;;;2096315;28;20028;-63
2023/06/16 02:28:16;;;;;;;11.88;8.25;;;;;;;;;;2094479;28;20033;-63
2023/06/16 02:29:35;;;;;;;11.32;7.10;;;;;;;;;;2095820;28;20032;-63
2023/06/16 02:30:54;;;;;;;8.88;7.75;;;;;;;;;;2084364;28;20483;-63
2023/06/16 02:32:13;;;;;;;12.23;7.90;;;;;;;;;;2089685;28;20032;-63
2023/06/16 02:33:32;;;;;;;14.43;7.38;;;;;;;;;;2086808;28;20061;-63
2023/06/16 02:34:52;;;;;;;14.35;8.38;;;;;;;;;;2088978;28;20024;-63
2023/06/16 02:36:13;;;;;;;13.18;8.15;;;;;;;;;;2095926;28;20049;-63
2023/06/16 02:37:36;;;;;;;13.63;8.65;;;;;;;;;;2095730;28;20036;-64
2023/06/16 02:38:55;;;;;;;11.35;8.13;;;;;;;;;;2096306;28;20028;-63
2023/06/16 02:40:14;;;;;;;8.55;7.72;;;;;;;;;;2090480;28;20518;-63
2023/06/16 02:41:33;;;;;;;10.13;7.97;;;;;;;;;;2092275;28;20111;-63
2023/06/16 02:42:54;;;;;;;10.05;7.75;;;;;;;;;;2093049;28;20459;-64
2023/06/16 02:44:13;;;;;;;10.25;7.55;;;;;;;;;;2086990;28;20116;-63
2023/06/16 02:45:31;;;;;;;14.05;8.27;;;;;;;;;;2090821;28;20029;-65
2023/06/16 02:46:50;;;;;;;8.65;7.40;;;;;;;;;;2093969;28;20505;-63
2023/06/16 02:48:10;;;;;;;9.65;8.30;;;;;;;;;;2092085;28;20032;-63
2023/06/16 02:49:30;;;;;;;12.88;8.60;;;;;;;;;;2095924;28;20552;-63
2023/06/16 02:50:50;;;;;;;8.80;7.97;;;;;;;;;;2094962;28;20123;-63
2023/06/16 02:52:11;;;;;;;11.45;8.07;;;;;;;;;;2090280;28;20032;-63
2023/06/16 02:53:30;;;;;;;13.00;7.68;;;;;;;;;;2096035;28;20021;-62
2023/06/16 02:54:50;;;;;;;8.25;7.20;;;;;;;;;;2088362;28;20033;-61
2023/06/16 02:56:10;;;;;;;18.00;8.38;;;;;;;;;;2082405;28;20026;-62
2023/06/16 02:57:29;;;;;;;13.50;7.72;;;;;;;;;;2090264;28;20482;-63
2023/06/16 02:58:48;;;;;;;9.18;8.13;;;;;;;;;;2091572;28;20037;-63
2023/06/16 03:00:10;;;;;;;12.23;7.90;;;;;;;;;;2093407;28;20028;-63
2023/06/16 03:01:29;;;;;;;11.07;7.65;;;;;;;;;;2094673;28;20032;-63
2023/06/16 03:02:48;;;;;;;8.50;7.68;;;;;;;;;;2096550;28;20532;-67
2023/06/16 03:04:07;;;;;;;8.77;8.07;;;;;;;;;;2096909;28;20037;-62
2023/06/16 03:05:27;;;;;;;9.55;8.00;;;;;;;;;;2094259;28;20028;-63
2023/06/16 03:06:47;;;;;;;12.80;8.68;;;;;;;;;;2093964;28;20433;-63
2023/06/16 03:08:06;;;;;;;12.52;7.20;;;;;;;;;;2091840;28;20032;-62
2023/06/16 03:09:26;;;;;;;9.68;7.80;;;;;;;;;;2094828;28;20064;-63
2023/06/16 03:10:45;;;;;;;13.18;7.47;;;;;;;;;;2092215;28;20060;-63
2023/06/16 03:12:04;;;;;;;17.80;8.32;;;;;;;;;;2096093;28;20490;-61
2023/06/16 03:13:23;;;;;;;12.45;7.63;;;;;;;;;;2094872;28;20127;-61
2023/06/16 03:14:42;;;;;;;14.00;8.45;;;;;;;;;;2086678;28;20057;-63
2023/06/16 03:16:02;;;;;;;8.25;7.45;;;;;;;;;;2092303;28;20032;-62
2023/06/16 03:17:21;;;;;;;9.23;7.75;;;;;;;;;;2093304;28;20021;-62
2023/06/16 03:18:41;;;;;;;11.98;8.27;;;;;;;;;;2092076;28;20033;-60
2023/06/16 03:20:00;;;;;;;8.15;7.32;;;;;;;;;;2095924;28;20486;-60
2023/06/16 03:21:19;;;;;;;8.38;6.60;;;;;;;;;;2094583;28;20041;-62
2023/06/16 03:22:38;;;;;;;9.90;8.68;;;;;;;;;;2095888;28;20025;-60
2023/06/16 03:23:57;;;;;;;15.05;7.70;;;;;;;;;;2093394;28;20025;-60
2023/06/16 03:25:16;;;;;;;10.80;7.82;;;;;;;;;;2096039;28;20476;-61
2023/06/16 03:26:36;;;;;;;11.88;6.95;;;;;;;;;;2094451;28;20020;-60
2023/06/16 03:27:55;;;;;;;14.25;7.95;;;;;;;;;;2082220;28;20474;-61
2023/06/16 03:29:14;;;;;;;13.15;8.10;;;;;;;;;;2089975;28;20021;-61
2023/06/16 03:30:33;;;;;;;12.90;7.40;;;;;;;;;;2094671;28;20025;-61
2023/06/16 03:31:51;;;;;;;16.80;7.78;;;;;;;;;;2096453;28;20489;-61
2023/06/16 03:33:11;;;;;;;10.02;7.53;;;;;;;;;;2095642;28;20428;-60
2023/06/16 03:34:30;;;;;;;9.57;7.15;;;;;;;;;;2095824;28;20489;-61
2023/06/16 03:35:49;;;;;;;8.30;6.93;;;;;;;;;;2093204;28;20056;-62
2023/06/16 03:37:08;;;;;;;8.88;7.10;;;;;;;;;;2096306;28;20398;-62
2023/06/16 03:38:27;;;;;;;10.68;6.80;;;;;;;;;;2093797;28;20029;-62
2023/06/16 03:39:46;;;;;;;18.08;8.05;;;;;;;;;;2095507;28;20504;-61
2023/06/16 03:41:05;;;;;;;9.23;7.03;;;;;;;;;;2094863;28;20036;-61
2023/06/16 03:42:24;;;;;;;7.05;5.80;;;;;;;;;;2085501;28;20029;-62
2023/06/16 03:43:43;;;;;;;10.05;7.07;;;;;;;;;;2090612;28;20032;-61
2023/06/16 03:45:03;;;;;;;8.18;6.28;;;;;;;;;;2083598;28;20591;-61
2023/06/16 03:46:22;;;;;;;11.02;6.80;;;;;;;;;;2091882;28;20426;-61
2023/06/16 03:47:41;;;;;;;8.45;6.63;;;;;;;;;;2093921;28;20028;-61
2023/06/16 03:49:00;;;;;;;10.90;6.82;;;;;;;;;;2095535;28;20033;-61
2023/06/16 03:50:19;;;;;;;9.75;7.85;;;;;;;;;;2093259;28;20119;-61
2023/06/16 03:51:39;;;;;;;7.93;6.85;;;;;;;;;;2093623;28;20028;-63
2023/06/16 03:52:58;;;;;;;6.82;6.15;;;;;;;;;;2096052;28;20537;-62
2023/06/16 03:54:18;;;;;;;9.23;6.70;;;;;;;;;;2095667;28;20028;-62
2023/06/16 03:55:37;;;;;;;8.15;7.32;;;;;;;;;;2094023;28;20103;-61
2023/06/16 03:56:56;;;;;;;8.60;7.03;;;;;;;;;;2094138;28;20433;-61
2023/06/16 03:58:15;;;;;;;8.32;6.40;;;;;;;;;;2091157;28;20032;-61
2023/06/16 03:59:35;;;;;;;12.38;7.47;;;;;;;;;;2096037;28;20440;-62
2023/06/16 04:00:53;;;;;;;13.10;6.50;;;;;;;;;;2092496;28;20725;-61
2023/06/16 04:02:12;;;;;;;8.68;6.60;;;;;;;;;;2094625;28;20497;-63
2023/06/16 04:03:31;;;;;;;8.80;6.70;;;;;;;;;;2096303;28;20029;-62
2023/06/16 04:04:51;;;;;;;12.10;6.60;;;;;;;;;;2095414;28;20036;-63
2023/06/16 04:06:11;;;;;;;11.70;6.90;;;;;;;;;;2095843;28;20489;-62
2023/06/16 04:07:34;;;;;;;10.55;6.75;;;;;;;;;;2091206;28;20041;-61
2023/06/16 04:08:56;;;;;;;8.93;6.63;;;;;;;;;;2095304;28;20028;-62
2023/06/16 04:10:15;;;;;;;13.93;6.75;;;;;;;;;;2095612;28;20025;-62
2023/06/16 04:11:36;;;;;;;11.38;7.05;;;;;;;;;;2095504;28;20115;-61
2023/06/16 04:12:55;;;;;;;8.82;6.75;;;;;;;;;;2092018;28;20036;-62
2023/06/16 04:14:14;;;;;;;10.50;6.00;;;;;;;;;;2089940;28;20468;-63
2023/06/16 04:15:33;;;;;;;8.57;6.07;;;;;;;;;;2082500;28;20510;-61
2023/06/16 04:16:52;;;;;;;12.77;6.60;;;;;;;;;;2090237;28;20625;-63
2023/06/16 04:18:11;;;;;;;9.32;6.38;;;;;;;;;;2094949;28;20025;-62
2023/06/16 04:19:30;;;;;;;7.95;6.25;;;;;;;;;;2094797;28;20033;-61
2023/06/16 04:20:49;;;;;;;8.00;5.88;;;;;;;;;;2094489;28;20025;-63
2023/06/16 04:22:08;;;;;;;8.85;6.22;;;;;;;;;;2095831;28;20036;-64
2023/06/16 04:23:27;;;;;;;16.50;6.88;;;;;;;;;;2092903;28;20111;-62
2023/06/16 04:24:46;;;;;;;12.50;6.70;;;;;;;;;;2095712;28;20127;-62
2023/06/16 04:26:06;;;;;;;9.05;6.40;;;;;;;;;;2094340;28;20036;-62
2023/06/16 04:27:28;;;;;;;11.15;5.97;;;;;;;;;;2093933;28;20394;-62
2023/06/16 04:28:54;;;;;;;11.88;6.22;;;;;;;;;;2091333;28;20056;-62
2023/06/16 04:30:13;;;;;;;9.68;5.97;;;;;;;;;;2093427;28;20029;-64
2023/06/16 04:31:35;;;;;;;14.02;6.18;;;;;;;;;;2094180;28;20602;-62
2023/06/16 04:32:54;;;;;;;11.48;6.10;;;;;;;;;;2094981;28;20025;-63
2023/06/16 04:34:13;;;;;;;11.00;6.20;;;;;;;;;;2084634;28;20033;-62
2023/06/16 04:35:34;;;;;;;13.18;5.90;;;;;;;;;;2091528;28;20521;-62
2023/06/16 04:36:57;;;;;;;9.57;5.72;;;;;;;;;;2093294;28;20151;-62
2023/06/16 04:38:15;;;;;;;9.40;5.72;;;;;;;;;;2090261;28;20730;-63
2023/06/16 04:39:34;;;;;;;12.50;5.53;;;;;;;;;;2086054;28;20033;-62
2023/06/16 04:40:53;;;;;;;10.05;6.68;;;;;;;;;;2092925;28;20033;-63
2023/06/16 04:42:12;;;;;;;19.52;6.25;;;;;;;;;;2093928;28;20044;-62
2023/06/16 04:43:31;;;;;;;11.00;6.15;;;;;;;;;;2090927;28;20032;-62
2023/06/16 04:44:50;;;;;;;11.85;6.13;;;;;;;;;;2085462;28;20451;-63
2023/06/16 04:46:10;;;;;;;15.60;6.28;;;;;;;;;;2091935;28;20037;-62
2023/06/16 04:47:29;;;;;;;18.08;6.68;;;;;;;;;;2089804;28;20036;-63
2023/06/16 04:48:48;;;;;;;8.45;6.03;;;;;;;;;;2089035;28;20072;-62
2023/06/16 04:50:10;;;;;;;17.23;5.55;;;;;;;;;;2089291;28;20037;-62
2023/06/16 04:51:29;;;;;;;8.75;5.93;;;;;;;;;;2088955;28;20020;-62
2023/06/16 04:52:49;;;;;;;15.65;6.68;;;;;;;;;;2091168;28;20036;-64
2023/06/16 04:54:09;;;;;;;9.52;6.05;;;;;;;;;;2080468;28;20578;-63
2023/06/16 04:55:27;;;;;;;14.20;6.28;;;;;;;;;;2088840;28;20033;-62
2023/06/16 04:56:46;;;;;;;16.02;6.13;;;;;;;;;;2092495;28;20025;-63
2023/06/16 04:58:06;;;;;;;10.85;5.57;;;;;;;;;;2079083;28;20112;-62
2023/06/16 04:59:25;;;;;;;13.05;6.07;;;;;;;;;;2085315;28;20029;-62
2023/06/16 05:00:44;;;;;;;11.80;5.32;;;;;;;;;;2094267;28;20037;-62
2023/06/16 05:02:04;;;;;;;7.65;5.20;;;;;;;;;;2092009;28;20048;-62
2023/06/16 05:03:22;;;;;;;11.32;5.47;;;;;;;;;;2091675;28;20370;-62
2023/06/16 05:04:43;;;;;;;10.90;5.80;;;;;;;;;;2093506;28;20107;-62
2023/06/16 05:06:02;;;;;;;5.85;5.00;;;;;;;;;;2094717;28;20516;-62
2023/06/16 05:07:21;;;;;;;8.10;5.57;;;;;;;;;;2092047;28;20036;-62
2023/06/16 05:08:40;;;;;;;6.72;5.00;;;;;;;;;;2093283;28;20501;-62
2023/06/16 05:10:00;;;;;;;7.90;5.20;;;;;;;;;;2095568;28;20029;-64
2023/06/16 05:11:19;;;;;;;10.50;5.30;;;;;;;;;;2093430;28;20045;-62
2023/06/16 05:12:38;;;;;;;11.77;5.43;;;;;;;;;;2093490;28;20393;-66
2023/06/16 05:13:57;;;;;;;6.28;5.05;;;;;;;;;;2094771;28;20028;-62
2023/06/16 05:15:16;;;;;;;7.70;5.22;;;;;;;;;;2092729;28;20024;-62
2023/06/16 05:16:35;;;;;;;5.75;5.30;;;;;;;;;;2095086;28;20025;-62
2023/06/16 05:17:54;;;;;;;6.70;5.40;;;;;;;;;;2084252;28;20035;-63
2023/06/16 05:19:13;;;;;;;6.13;4.97;;;;;;;;;;2091971;28;20025;-62
2023/06/16 05:20:32;;;;;;;8.27;5.03;;;;;;;;;;2085152;28;20046;-64
2023/06/16 05:21:51;;;;;;;6.65;4.93;;;;;;;;;;2090097;28;20464;-63
2023/06/16 05:23:10;;;;;;;5.70;4.65;;;;;;;;;;2093469;28;20155;-62
2023/06/16 05:24:30;;;;;;;7.60;5.32;;;;;;;;;;2090594;28;20511;-62
2023/06/16 05:25:49;;;;;;;7.53;5.00;;;;;;;;;;2087002;28;20108;-65
2023/06/16 05:27:08;;;;;;;5.78;5.28;;;;;;;;;;2080337;28;20157;-65
2023/06/16 05:28:27;;;;;;;8.50;5.53;;;;;;;;;;2086220;28;20041;-66
2023/06/16 05:29:45;;;;;;;6.63;5.03;;;;;;;;;;2094943;28;20032;-62
2023/06/16 05:31:05;;;;;;;6.63;5.25;;;;;;;;;;2091942;28;20036;-62
2023/06/16 05:32:24;;;;;;;5.95;5.40;;;;;;;;;;2090464;28;20036;-63
2023/06/16 05:33:43;;;;;;;5.78;4.28;;;;;;;;;;2091542;28;20037;-67
2023/06/16 05:35:02;;;;;;;5.07;4.65;;;;;;;;;;2094329;28;20033;-67
2023/06/16 05:36:24;;;;;;;5.78;4.43;;;;;;;;;;2091316;28;20064;-67
2023/06/16 05:37:43;;;;;;;5.45;4.95;;;;;;;;;;2094304;28;20024;-67
2023/06/16 05:39:02;;;;;;;5.22;4.80;;;;;;;;;;2080966;28;20112;-67
2023/06/16 05:40:21;;;;;;;6.78;4.75;;;;;;;;;;2089652;28;20033;-67
2023/06/16 05:41:40;;;;;;;6.03;4.95;;;;;;;;;;2091527;28;20025;-67
2023/06/16 05:42:59;;;;;;;7.45;5.28;;;;;;;;;;2092734;28;20037;-67
2023/06/16 05:44:18;;;;;;;5.00;4.63;;;;;;;;;;2094261;28;20029;-67
2023/06/16 05:45:37;;;;;;;7.15;4.78;;;;;;;;;;2090864;28;20021;-68
2023/06/16 05:46:56;;;;;;;8.70;5.20;;;;;;;;;;2081943;28;20029;-67
2023/06/16 05:48:15;;;;;;;5.75;4.65;;;;;;;;;;2087507;28;20025;-68
2023/06/16 05:49:34;;;;;;;7.97;5.00;;;;;;;;;;2094337;28;20033;-67
2023/06/16 05:50:53;;;;;;;5.15;4.70;;;;;;;;;;2096619;28;20032;-67
2023/06/16 05:52:12;;;;;;;5.38;4.88;;;;;;;;;;2080990;28;20228;-68
2023/06/16 05:53:31;;;;;;;5.20;4.80;;;;;;;;;;2081967;28;20045;-68
2023/06/16 05:54:50;;;;;;;5.97;5.35;;;;;;;;;;2093581;28;20485;-69
2023/06/16 05:56:12;;;;;;;5.35;4.78;;;;;;;;;;2093386;28;20420;-68
2023/06/16 05:57:31;;;;;;;6.20;5.07;;;;;;;;;;2094734;28;20065;-67
2023/06/16 05:58:50;;;;;;;7.20;4.97;;;;;;;;;;2093934;28;20025;-69
2023/06/16 06:00:10;;;;;;;6.85;4.90;;;;;;;;;;2093043;28;20033;-68
2023/06/16 06:01:29;;;;;;;5.22;4.82;;;;;;;;;;2089917;28;20436;-68
2023/06/16 06:02:48;;;;;;;6.68;4.40;;;;;;;;;;2083629;28;20428;-68
2023/06/16 06:04:10;;;;;;;12.50;4.95;;;;;;;;;;2090231;28;20417;-68
2023/06/16 06:05:29;;;;;;;4.88;4.47;;;;;;;;;;2089025;28;20022;-68
2023/06/16 06:06:48;;;;;;;6.22;4.72;;;;;;;;;;2092533;28;20029;-68
2023/06/16 06:08:07;;;;;;;4.90;4.40;;;;;;;;;;2095129;28;20029;-67
2023/06/16 06:09:26;;;;;;;5.20;4.80;;;;;;;;;;2082065;28;20029;-67
2023/06/16 06:10:45;;;;;;;5.60;4.07;;;;;;;;;;2091515;28;20397;-69
2023/06/16 06:12:04;;;;;;;5.15;4.47;;;;;;;;;;2087571;28;20497;-68
2023/06/16 06:13:23;;;;;;;8.05;4.63;;;;;;;;;;2090249;28;20037;-68
2023/06/16 06:14:42;;;;;;;11.20;4.57;;;;;;;;;;2095872;28;20021;-67
2023/06/16 06:16:01;;;;;;;6.95;4.88;;;;;;;;;;2093362;28;20032;-67
2023/06/16 06:17:20;;;;;;;5.35;4.20;;;;;;;;;;2086867;28;20505;-67
2023/06/16 06:18:43;;;;;;;10.07;4.50;;;;;;;;;;2092634;28;20033;-67
2023/06/16 06:20:02;;;;;;;5.05;4.13;;;;;;;;;;2092839;28;20530;-67
2023/06/16 06:21:21;;;;;;;6.78;4.38;;;;;;;;;;2091433;28;20054;-67
2023/06/16 06:22:40;;;;;;;6.20;4.43;;;;;;;;;;2091264;28;20036;-67
2023/06/16 06:23:59;;;;;;;4.70;4.30;;;;;;;;;;2094063;28;20029;-67
2023/06/16 06:25:18;;;;;;;6.55;4.35;;;;;;;;;;2096597;28;20025;-67
2023/06/16 06:26:38;;;;;;;7.68;4.53;;;;;;;;;;2094397;28;20036;-68
2023/06/16 06:27:57;;;;;;;5.50;4.97;;;;;;;;;;2094951;28;20024;-67
2023/06/16 06:29:16;;;;;;;11.38;4.38;;;;;;;;;;2094701;28;20029;-67
2023/06/16 06:30:35;;;;;;;10.77;4.35;;;;;;;;;;2087837;28;20120;-68
2023/06/16 06:31:55;;;;;;;11.23;4.50;;;;;;;;;;2094149;28;20024;-67
2023/06/16 06:33:14;;;;;;;13.00;5.10;;;;;;;;;;2095318;28;20032;-67
2023/06/16 06:34:32;;;;;;;11.98;4.30;;;;;;;;;;2083970;28;20033;-67
2023/06/16 06:35:51;;;;;;;7.15;4.55;;;;;;;;;;2092042;28;20029;-67
2023/06/16 06:37:16;;;;;;;5.90;4.55;;;;;;;;;;2095137;28;20028;-68
2023/06/16 06:38:35;;;;;;;4.65;4.25;;;;;;;;;;2094715;28;20036;-67
2023/06/16 06:39:55;;;;;;;8.40;4.40;;;;;;;;;;2095547;28;20095;-67
2023/06/16 06:41:13;;;;;;;4.05;3.75;;;;;;;;;;2096198;28;20155;-67
2023/06/16 06:42:33;;;;;;;5.60;4.25;;;;;;;;;;2095070;28;20037;-67
2023/06/16 06:43:52;;;;;;;3.88;3.42;;;;;;;;;;2095589;28;20024;-67
2023/06/16 06:45:13;;;;;;;6.00;4.38;;;;;;;;;;2095004;28;20028;-67
2023/06/16 06:46:32;;;;;;;5.88;4.38;;;;;;;;;;2084784;28;20511;-67
2023/06/16 06:47:51;;;;;;;6.43;4.03;;;;;;;;;;2089721;28;20028;-67
2023/06/16 06:49:10;;;;;;;4.63;4.20;;;;;;;;;;2094219;28;20036;-67
2023/06/16 06:50:29;;;;;;;7.28;4.43;;;;;;;;;;2095568;28;20064;-67
2023/06/16 06:51:50;;;;;;;5.95;4.22;;;;;;;;;;2096684;28;20055;-67
2023/06/16 06:53:09;;;;;;;6.40;4.30;;;;;;;;;;2086976;28;20393;-67
2023/06/16 06:54:28;;;;;;;9.73;4.60;;;;;;;;;;2082558;28;20028;-67
2023/06/16 06:55:47;;;;;;;7.80;4.10;;;;;;;;;;2092110;28;20402;-67
2023/06/16 06:57:06;;;;;;;8.65;4.47;;;;;;;;;;2095255;28;20040;-66
2023/06/16 06:58:25;;;;;;;9.05;4.25;;;;;;;;;;2095461;28;20021;-67
2023/06/16 06:59:44;;;;;;;4.22;3.80;;;;;;;;;;2096781;28;20470;-67
2023/06/16 07:01:03;;;;;;;4.28;3.75;;;;;;;;;;2093876;28;20032;-67
2023/06/16 07:02:23;;;;;;;4.57;3.80;;;;;;;;;;2085343;28;20033;-68
2023/06/16 07:03:42;;;;;;;5.28;3.97;;;;;;;;;;2091452;28;20103;-67
2023/06/16 07:05:02;;;;;;;6.35;4.30;;;;;;;;;;2096083;28;20533;-68
2023/06/16 07:06:21;;;;;;;4.00;3.80;;;;;;;;;;2093356;28;20028;-69
2023/06/16 07:07:40;;;;;;;4.65;4.22;;;;;;;;;;2095234;28;20024;-67
2023/06/16 07:08:59;;;;;;;10.02;4.07;;;;;;;;;;2095402;28;20022;-67
2023/06/16 07:10:18;;;;;;;4.63;4.22;;;;;;;;;;2096712;28;20041;-66
2023/06/16 07:11:40;;;;;;;4.38;3.97;;;;;;;;;;2097250;28;20576;-68
2023/06/16 07:12:59;;;;;;;6.28;4.28;;;;;;;;;;2086559;28;20513;-68
2023/06/16 07:14:18;;;;;;;5.05;3.85;;;;;;;;;;2092896;28;20032;-67
2023/06/16 07:15:37;;;;;;;5.40;3.67;;;;;;;;;;2096110;28;20158;-68
2023/06/16 07:16:57;;;;;;;4.68;3.95;;;;;;;;;;2096157;28;20024;-67
2023/06/16 07:18:16;;;;;;;5.63;4.45;;;;;;;;;;2097089;28;20024;-67
2023/06/16 07:19:35;;;;;;;5.75;3.85;;;;;;;;;;2094467;28;20032;-68
2023/06/16 07:20:55;;;;;;;7.35;4.03;;;;;;;;;;2094349;28;20050;-67
2023/06/16 07:22:13;;;;;;;4.97;3.92;;;;;;;;;;2095886;28;20385;-67
2023/06/16 07:23:33;;;;;;;4.25;3.85;;;;;;;;;;2093556;28;20044;-67
2023/06/16 07:24:51;;;;;;;4.30;3.90;;;;;;;;;;2096245;28;20029;-67
2023/06/16 07:26:11;;;;;;;9.10;4.55;;;;;;;;;;2094755;28;20024;-67
2023/06/16 07:27:30;;;;;;;4.90;4.50;;;;;;;;;;2095560;28;20025;-68
2023/06/16 07:28:49;;;;;;;5.25;4.18;;;;;;;;;;2096583;28;20033;-68
2023/06/16 07:30:09;;;;;;;6.28;4.30;;;;;;;;;;2096606;28;20401;-67
2023/06/16 07:31:28;;;;;;;7.07;4.40;;;;;;;;;;2096703;28;20064;-67
2023/06/16 07:32:49;;;;;;;4.82;4.30;;;;;;;;;;2085979;28;20025;-67
2023/06/16 07:34:08;;;;;;;5.85;4.28;;;;;;;;;;2092401;28;20037;-67
2023/06/16 07:35:27;;;;;;;6.50;4.55;;;;;;;;;;2095490;28;20478;-67
2023/06/16 07:36:46;;;;;;;6.68;4.60;;;;;;;;;;2097349;28;20028;-68
2023/06/16 07:38:05;;;;;;;5.05;4.60;;;;;;;;;;2094952;28;20029;-67
2023/06/16 07:39:24;;;;;;;4.60;4.20;;;;;;;;;;2094369;28;20425;-68
2023/06/16 07:40:43;;;;;;;5.22;4.20;;;;;;;;;;2095771;28;20032;-67
2023/06/16 07:42:02;;;;;;;9.25;4.70;;;;;;;;;;2094521;28;20033;-67
2023/06/16 07:43:21;;;;;;;5.80;4.47;;;;;;;;;;2092912;28;20032;-69
2023/06/16 07:44:40;;;;;;;4.60;4.25;;;;;;;;;;2095309;28;20040;-67
2023/06/16 07:46:00;;;;;;;4.00;3.80;;;;;;;;;;2094682;28;20051;-68
2023/06/16 07:47:19;;;;;;;5.95;4.22;;;;;;;;;;2094996;28;20041;-68
2023/06/16 07:48:38;;;;;;;5.30;4.13;;;;;;;;;;2095030;28;20032;-67
2023/06/16 07:49:57;;;;;;;4.28;3.88;;;;;;;;;;2096900;28;20461;-68
2023/06/16 07:51:16;;;;;;;4.78;4.35;;;;;;;;;;2095755;28;20655;-67
2023/06/16 07:52:35;;;;;;;5.63;4.47;;;;;;;;;;2094929;28;20036;-67
2023/06/16 07:53:54;;;;;;;7.28;4.35;;;;;;;;;;2095804;28;20020;-68
2023/06/16 07:55:14;;;;;;;6.90;4.53;;;;;;;;;;2085766;28;20048;-67